createdAt,value
2023-02-13T00:00:34.061Z,53.67
2023-02-13T00:03:01.511Z,54.13
2023-02-13T00:05:28.941Z,56.25
2023-02-13T00:07:57.386Z,50.50
2023-02-13T00:10:24.901Z,51.33
2023-02-13T00:12:52.335Z,48.88
2023-02-13T00:15:19.855Z,48.13
2023-02-13T00:17:47.273Z,46.00
2023-02-13T00:20:14.755Z,45.30
2023-02-13T00:22:42.384Z,45.20
2023-02-13T00:25:10.000Z,42.30
2023-02-13T00:27:37.510Z,44.47
2023-02-13T00:30:05.755Z,41.63
2023-02-13T00:32:33.423Z,41.20
2023-02-13T00:35:00.819Z,38.45
2023-02-13T00:37:28.278Z,39.58
2023-02-13T00:39:56.309Z,38.92
2023-02-13T00:42:26.510Z,40.60
2023-02-13T00:44:54.628Z,40.53
2023-02-13T00:47:22.021Z,40.08
2023-02-13T00:49:50.601Z,40.70
2023-02-13T00:52:17.983Z,39.95
2023-02-13T00:54:46.731Z,40.63
2023-02-13T00:57:14.246Z,39.80
2023-02-13T00:59:43.135Z,40.13
2023-02-13T01:02:10.591Z,39.78
2023-02-13T01:04:38.054Z,39.22
2023-02-13T01:07:05.484Z,39.47
2023-02-13T01:09:32.911Z,38.97
2023-02-13T01:12:00.272Z,37.78
2023-02-13T01:14:27.689Z,39.67
2023-02-13T01:16:55.124Z,40.63
2023-02-13T01:19:22.543Z,43.58
2023-02-13T01:21:50.010Z,42.88
2023-02-13T01:24:19.666Z,44.85
2023-02-13T01:26:47.082Z,45.70
2023-02-13T01:29:15.029Z,48.58
2023-02-13T01:31:42.437Z,43.95
2023-02-13T01:34:10.037Z,44.70
2023-02-13T01:36:37.554Z,46.92
2023-02-13T01:39:05.015Z,43.95
2023-02-13T01:41:32.541Z,46.58
2023-02-13T01:44:01.142Z,44.10
2023-02-13T01:46:32.400Z,44.25
2023-02-13T01:49:04.275Z,45.20
2023-02-13T01:51:34.430Z,45.45
2023-02-13T01:54:04.764Z,45.60
2023-02-13T01:56:35.928Z,44.33
2023-02-13T01:59:05.135Z,45.55
2023-02-13T02:01:33.069Z,46.15
2023-02-13T02:04:18.948Z,47.80
2023-02-13T02:06:49.291Z,49.50
2023-02-13T02:09:26.714Z,50.67
2023-02-13T02:12:01.545Z,48.00
2023-02-13T02:14:29.340Z,49.22
2023-02-13T02:16:57.855Z,49.17
2023-02-13T02:19:39.071Z,51.50
2023-02-13T02:22:21.970Z,53.80
2023-02-13T02:24:55.656Z,54.35
2023-02-13T02:27:23.026Z,48.65
2023-02-13T02:30:08.252Z,45.75
2023-02-13T02:32:51.857Z,41.72
2023-02-13T02:35:25.393Z,41.33
2023-02-13T02:38:02.682Z,37.45
2023-02-13T02:40:30.630Z,36.05
2023-02-13T02:43:07.295Z,35.85
2023-02-13T02:45:45.773Z,36.60
2023-02-13T02:48:55.050Z,37.53
2023-02-13T02:51:29.719Z,32.83
2023-02-13T02:53:58.616Z,33.15
2023-02-13T02:56:46.756Z,32.92
2023-02-13T02:59:37.657Z,32.47
2023-02-13T03:02:25.478Z,32.90
2023-02-13T03:05:13.380Z,30.02
2023-02-13T03:07:40.901Z,28.40
2023-02-13T03:10:35.247Z,30.23
2023-02-13T03:13:23.733Z,32.05
2023-02-13T03:16:14.113Z,31.00
2023-02-13T03:19:05.588Z,30.52
2023-02-13T03:22:09.344Z,29.10
2023-02-13T03:24:51.220Z,30.90
2023-02-13T03:28:00.528Z,29.80
2023-02-13T03:30:40.032Z,31.33
2023-02-13T03:33:16.229Z,30.67
2023-02-13T03:36:02.106Z,30.38
2023-02-13T03:41:20.157Z,29.25
2023-02-13T03:43:50.602Z,31.52
2023-02-13T03:46:19.873Z,31.90
2023-02-13T03:49:06.357Z,32.03
2023-02-13T03:51:51.873Z,33.40
2023-02-13T03:54:22.447Z,32.65
2023-02-13T03:57:09.998Z,35.10
2023-02-13T03:59:37.863Z,34.58
2023-02-13T04:02:05.337Z,33.13
2023-02-13T04:04:52.971Z,33.58
2023-02-13T04:07:32.241Z,30.10
2023-02-13T04:10:01.362Z,28.65
2023-02-13T04:12:51.615Z,27.80
2023-02-13T04:15:26.896Z,28.13
2023-02-13T04:17:56.608Z,24.77
2023-02-13T04:20:27.406Z,23.80
2023-02-13T04:22:54.812Z,22.95
2023-02-13T04:25:22.265Z,26.85
2023-02-13T04:27:49.881Z,19.27
2023-02-13T04:30:17.324Z,19.60
2023-02-13T04:32:44.908Z,21.85
2023-02-13T04:35:13.770Z,22.42
2023-02-13T04:37:41.437Z,22.65
2023-02-13T04:40:09.225Z,23.80
2023-02-13T04:42:36.728Z,25.33
2023-02-13T04:45:04.289Z,26.60
2023-02-13T04:47:31.726Z,25.20
2023-02-13T04:49:59.184Z,25.63
2023-02-13T04:52:26.636Z,25.77
2023-02-13T04:54:54.254Z,26.23
2023-02-13T04:57:21.701Z,24.40
2023-02-13T04:59:49.081Z,26.80
2023-02-13T05:02:16.501Z,27.58
2023-02-13T05:04:43.911Z,26.85
2023-02-13T05:07:11.449Z,27.40
2023-02-13T05:09:41.248Z,28.55
2023-02-13T05:12:09.030Z,29.25
2023-02-13T05:14:36.459Z,29.08
2023-02-13T05:17:03.951Z,27.92
2023-02-13T05:19:31.373Z,26.35
2023-02-13T05:22:17.373Z,40.28
2023-02-13T05:24:44.942Z,35.53
2023-02-13T05:27:12.520Z,39.72
2023-02-13T05:29:39.944Z,41.55
2023-02-13T05:32:07.341Z,32.53
2023-02-13T05:34:34.859Z,29.20
2023-02-13T05:37:02.289Z,27.92
2023-02-13T05:39:29.775Z,28.05
2023-02-13T05:41:57.260Z,30.25
2023-02-13T05:44:24.779Z,35.05
2023-02-13T05:46:53.345Z,35.42
2023-02-13T05:49:20.914Z,38.90
2023-02-13T05:51:48.356Z,31.75
2023-02-13T05:54:15.856Z,31.90
2023-02-13T05:56:43.257Z,33.78
2023-02-13T05:59:10.678Z,37.45
2023-02-13T06:01:38.111Z,33.55
2023-02-13T06:04:05.582Z,37.90
2023-02-13T06:06:33.135Z,48.42
2023-02-13T06:09:00.592Z,44.38
2023-02-13T06:11:28.219Z,37.13
2023-02-13T06:13:55.686Z,48.33
2023-02-13T06:16:23.330Z,45.63
2023-02-13T06:18:50.856Z,44.58
2023-02-13T06:21:18.268Z,44.05
2023-02-13T06:23:45.720Z,32.53
2023-02-13T06:26:13.184Z,28.77
2023-02-13T06:28:41.025Z,30.50
2023-02-13T06:31:08.645Z,30.27
2023-02-13T06:33:36.201Z,30.92
2023-02-13T06:36:03.661Z,27.33
2023-02-13T06:38:32.166Z,25.98
2023-02-13T06:41:01.198Z,24.60
2023-02-13T06:43:28.708Z,24.52
2023-02-13T06:45:56.134Z,24.08
2023-02-13T06:48:23.854Z,23.70
2023-02-13T06:50:54.470Z,24.20
2023-02-13T06:53:24.996Z,22.15
2023-02-13T06:55:53.504Z,24.05
2023-02-13T06:58:21.692Z,25.42
2023-02-13T07:00:49.306Z,28.20
2023-02-13T07:03:16.808Z,29.38
2023-02-13T07:05:45.098Z,29.85
2023-02-13T07:08:13.655Z,30.60
2023-02-13T07:10:41.746Z,30.42
2023-02-13T07:13:09.821Z,31.33
2023-02-13T07:15:37.894Z,33.22
2023-02-13T07:18:06.028Z,39.35
2023-02-13T07:20:34.037Z,37.13
2023-02-13T07:23:02.046Z,31.98
2023-02-13T07:25:29.909Z,22.27
2023-02-13T07:28:01.498Z,22.50
2023-02-13T07:30:29.230Z,23.15
2023-02-13T07:32:59.088Z,24.63
2023-02-13T07:35:26.580Z,26.23
2023-02-13T07:37:55.221Z,27.65
2023-02-13T07:40:22.826Z,27.75
2023-02-13T07:42:50.275Z,26.90
2023-02-13T07:45:17.843Z,23.17
2023-02-13T07:47:45.270Z,23.05
2023-02-13T07:50:13.156Z,22.75
2023-02-13T07:52:40.638Z,18.35
2023-02-13T07:55:08.339Z,19.73
2023-02-13T07:57:35.767Z,18.48
2023-02-13T08:00:03.536Z,17.40
2023-02-13T08:02:39.021Z,17.23
2023-02-13T08:05:06.689Z,17.10
2023-02-13T08:07:34.119Z,17.83
2023-02-13T08:10:20.418Z,17.55
2023-02-13T08:12:48.084Z,19.67
2023-02-13T08:15:16.530Z,17.17
2023-02-13T08:17:44.016Z,12.48
2023-02-13T08:20:11.578Z,12.88
2023-02-13T08:22:39.351Z,11.35
2023-02-13T08:25:07.222Z,11.68
2023-02-13T08:27:34.689Z,10.95
2023-02-13T08:30:03.256Z,11.30
2023-02-13T08:32:32.507Z,12.18
2023-02-13T08:35:03.020Z,12.82
2023-02-13T08:37:30.421Z,14.00
2023-02-13T08:39:57.874Z,13.50
2023-02-13T08:42:25.252Z,14.10
2023-02-13T08:44:52.740Z,14.38
2023-02-13T08:47:20.205Z,14.95
2023-02-13T08:49:47.689Z,14.50
2023-02-13T08:52:15.347Z,15.80
2023-02-13T08:54:42.939Z,15.57
2023-02-13T08:57:10.377Z,16.80
2023-02-13T08:59:37.846Z,16.80
2023-02-13T09:02:05.246Z,16.35
2023-02-13T09:04:33.059Z,17.10
2023-02-13T09:07:00.504Z,18.05
2023-02-13T09:09:27.977Z,19.48
2023-02-13T09:11:57.883Z,19.77
2023-02-13T09:14:25.775Z,20.00
2023-02-13T09:16:53.425Z,20.33
2023-02-13T09:19:20.988Z,20.90
2023-02-13T09:21:48.524Z,21.88
2023-02-13T09:24:15.921Z,21.20
2023-02-13T09:26:43.339Z,22.70
2023-02-13T09:29:10.921Z,23.20
2023-02-13T09:31:38.454Z,26.88
2023-02-13T09:34:06.230Z,24.67
2023-02-13T09:36:36.490Z,24.65
2023-02-13T09:39:04.101Z,24.55
2023-02-13T09:41:37.312Z,24.73
2023-02-13T09:44:34.017Z,25.02
2023-02-13T09:47:16.691Z,24.23
2023-02-13T09:49:55.932Z,23.52
2023-02-13T09:52:23.659Z,25.02
2023-02-13T09:54:51.051Z,25.17
2023-02-13T09:57:18.510Z,25.48
2023-02-13T09:59:58.182Z,24.33
2023-02-13T10:02:48.765Z,23.77
2023-02-13T10:05:28.116Z,25.15
2023-02-13T10:07:58.681Z,25.10
2023-02-13T10:10:32.049Z,25.42
2023-02-13T10:13:02.617Z,26.85
2023-02-13T10:15:36.779Z,26.27
2023-02-13T10:18:05.937Z,28.55
2023-02-13T10:20:37.370Z,27.45
2023-02-13T10:23:23.406Z,27.58
2023-02-13T10:25:59.332Z,26.40
2023-02-13T10:28:32.750Z,26.88
2023-02-13T10:31:04.124Z,28.08
2023-02-13T10:33:37.150Z,27.13
2023-02-13T10:36:10.462Z,27.60
2023-02-13T10:38:44.345Z,29.23
2023-02-13T10:41:25.601Z,30.77
2023-02-13T10:44:11.365Z,30.83
2023-02-13T10:49:35.450Z,31.30
2023-02-13T10:52:21.743Z,31.00
2023-02-13T10:54:55.586Z,30.70
2023-02-13T10:57:23.130Z,30.80
2023-02-13T10:59:53.583Z,29.05
2023-02-13T11:02:25.253Z,30.05
2023-02-13T11:05:01.319Z,29.73
2023-02-13T11:07:29.771Z,29.08
2023-02-13T11:10:00.121Z,29.77
2023-02-13T11:12:31.757Z,29.15
2023-02-13T11:15:00.527Z,28.25
2023-02-13T11:17:29.560Z,30.33
2023-02-13T11:19:58.366Z,30.15
2023-02-13T11:22:36.810Z,29.15
2023-02-13T11:25:04.298Z,29.02
2023-02-13T11:27:33.727Z,30.75
2023-02-13T11:30:02.952Z,29.70
2023-02-13T11:32:32.128Z,32.20
2023-02-13T11:35:07.011Z,33.90
2023-02-13T11:37:34.456Z,31.55
2023-02-13T11:40:21.840Z,32.47
2023-02-13T11:42:51.388Z,31.17
2023-02-13T11:45:23.043Z,30.77
2023-02-13T11:47:50.735Z,31.30
2023-02-13T11:50:26.748Z,31.75
2023-02-13T11:53:05.554Z,33.03
2023-02-13T11:55:40.483Z,31.38
2023-02-13T11:58:17.015Z,32.28
2023-02-13T12:00:44.677Z,31.35
2023-02-13T12:03:20.986Z,34.33
2023-02-13T12:06:07.526Z,35.60
2023-02-13T12:08:39.206Z,35.75
2023-02-13T12:11:24.727Z,36.35
2023-02-13T12:13:52.997Z,36.92
2023-02-13T12:16:35.559Z,39.38
2023-02-13T12:19:06.168Z,39.25
2023-02-13T12:21:42.090Z,38.17
2023-02-13T12:24:18.332Z,37.50
2023-02-13T12:27:12.181Z,38.90
2023-02-13T12:29:58.258Z,35.22
2023-02-13T12:32:28.913Z,34.70
2023-02-13T12:35:05.310Z,32.72
2023-02-13T12:37:44.677Z,33.45
2023-02-13T12:40:30.697Z,34.13
2023-02-13T12:42:58.196Z,33.15
2023-02-13T12:45:33.628Z,34.45
2023-02-13T12:48:19.119Z,32.58
2023-02-13T12:50:54.097Z,33.25
2023-02-13T12:53:21.572Z,32.08
2023-02-13T12:56:09.865Z,35.47
2023-02-13T12:58:37.366Z,30.95
2023-02-13T13:01:04.800Z,33.80
2023-02-13T13:03:44.479Z,32.80
2023-02-13T13:06:30.650Z,32.97
2023-02-13T13:09:08.399Z,34.58
2023-02-13T13:11:35.860Z,33.03
2023-02-13T13:14:15.974Z,33.80
2023-02-13T13:16:46.453Z,33.25
2023-02-13T13:19:13.925Z,33.25
2023-02-13T13:22:01.791Z,28.60
2023-02-13T13:24:41.224Z,28.00
2023-02-13T13:27:19.497Z,28.45
2023-02-13T13:29:50.889Z,26.98
2023-02-13T13:32:19.902Z,27.40
2023-02-13T13:34:47.474Z,26.17
2023-02-13T13:37:14.914Z,26.42
2023-02-13T13:39:52.519Z,26.35
2023-02-13T13:42:36.664Z,28.00
2023-02-13T13:45:10.786Z,27.55
2023-02-13T13:47:44.057Z,26.90
2023-02-13T13:50:28.592Z,27.42
2023-02-13T13:53:15.434Z,26.45
2023-02-13T13:55:48.640Z,25.10
2023-02-13T13:58:22.290Z,26.42
2023-02-13T14:01:09.966Z,26.20
2023-02-13T14:03:38.053Z,26.85
2023-02-13T14:06:15.507Z,25.80
2023-02-13T14:08:44.447Z,26.92
2023-02-13T14:11:30.780Z,27.02
2023-02-13T14:13:58.610Z,26.35
2023-02-13T14:16:42.892Z,26.88
2023-02-13T14:19:29.153Z,26.60
2023-02-13T14:22:16.605Z,26.98
2023-02-13T14:24:50.084Z,26.70
2023-02-13T14:27:29.985Z,26.65
2023-02-13T14:29:57.989Z,27.63
2023-02-13T14:32:31.469Z,28.23
2023-02-13T14:35:04.245Z,28.00
2023-02-13T14:37:35.737Z,28.70
2023-02-13T14:40:12.578Z,27.73
2023-02-13T14:42:40.572Z,28.02
2023-02-13T14:45:18.226Z,26.65
2023-02-13T14:47:50.985Z,28.67
2023-02-13T14:50:24.478Z,28.08
2023-02-13T14:52:52.174Z,25.88
2023-02-13T14:55:46.050Z,26.33
2023-02-13T14:58:16.982Z,25.30
2023-02-13T15:00:53.704Z,25.00
2023-02-13T15:03:39.423Z,24.30
2023-02-13T15:08:39.189Z,23.98
2023-02-13T15:11:26.615Z,24.13
2023-02-13T15:13:54.061Z,23.50
2023-02-13T15:16:21.561Z,25.02
2023-02-13T15:18:52.324Z,24.73
2023-02-13T15:21:21.700Z,25.50
2023-02-13T15:23:55.587Z,27.00
2023-02-13T15:26:24.523Z,26.58
2023-02-13T15:29:00.468Z,25.95
2023-02-13T15:31:31.322Z,28.45
2023-02-13T15:33:58.853Z,27.58
2023-02-13T15:36:27.847Z,27.38
2023-02-13T15:39:04.013Z,29.80
2023-02-13T15:41:36.735Z,29.23
2023-02-13T15:44:04.982Z,30.50
2023-02-13T15:46:37.141Z,31.73
2023-02-13T15:49:16.165Z,31.63
2023-02-13T15:51:44.245Z,31.02
2023-02-13T15:54:28.342Z,31.83
2023-02-13T15:56:58.192Z,33.15
2023-02-13T15:59:27.861Z,34.25
2023-02-13T16:01:55.871Z,35.45
2023-02-13T16:04:23.725Z,34.95
2023-02-13T16:06:51.682Z,33.75
2023-02-13T16:09:37.599Z,34.60
2023-02-13T16:12:05.032Z,35.47
2023-02-13T16:14:33.867Z,35.70
2023-02-13T16:17:17.554Z,37.83
2023-02-13T16:19:56.554Z,39.28
2023-02-13T16:22:33.436Z,39.60
2023-02-13T16:25:21.118Z,44.03
2023-02-13T16:27:56.461Z,42.78
2023-02-13T16:32:51.278Z,41.95
2023-02-13T16:35:29.038Z,42.72
2023-02-13T16:38:00.528Z,43.30
2023-02-13T16:40:34.502Z,44.55
2023-02-13T16:43:20.839Z,43.08
2023-02-13T16:45:48.330Z,45.65
2023-02-13T16:48:16.351Z,45.38
2023-02-13T16:50:44.041Z,45.45
2023-02-13T16:53:11.486Z,46.05
2023-02-13T16:55:38.953Z,44.78
2023-02-13T16:58:06.619Z,48.63
2023-02-13T17:00:34.205Z,46.58
2023-02-13T17:03:01.585Z,55.55
2023-02-13T17:05:29.435Z,58.78
2023-02-13T17:07:59.522Z,57.30
2023-02-13T17:10:35.850Z,57.80
2023-02-13T17:13:06.344Z,61.78
2023-02-13T17:15:33.887Z,57.60
2023-02-13T17:18:01.623Z,59.47
2023-02-13T17:20:33.713Z,67.43
2023-02-13T17:23:06.233Z,60.55
2023-02-13T17:25:38.037Z,43.58
2023-02-13T17:28:13.062Z,38.13
2023-02-13T17:30:40.882Z,54.72
2023-02-13T17:33:12.798Z,47.95
2023-02-13T17:35:40.307Z,44.53
2023-02-13T17:38:09.526Z,39.90
2023-02-13T17:40:37.221Z,72.30
2023-02-13T17:43:04.950Z,91.47
2023-02-13T17:45:33.252Z,101.65
2023-02-13T17:48:00.722Z,93.68
2023-02-13T17:50:29.432Z,90.10
2023-02-13T17:52:58.172Z,80.13
2023-02-13T17:55:27.343Z,82.78
2023-02-13T17:57:56.661Z,99.25
2023-02-13T18:00:24.766Z,101.40
2023-02-13T18:02:52.485Z,97.93
2023-02-13T18:05:20.797Z,103.90
2023-02-13T18:07:48.699Z,113.78
2023-02-13T18:10:16.100Z,126.40
2023-02-13T18:12:43.874Z,186.10
2023-02-13T18:15:11.654Z,261.48
2023-02-13T18:17:39.450Z,202.80
2023-02-13T18:20:07.452Z,124.55
2023-02-13T18:22:35.032Z,108.85
2023-02-13T18:25:02.666Z,98.82
2023-02-13T18:27:30.160Z,93.68
2023-02-13T18:29:57.707Z,88.97
2023-02-13T18:32:25.527Z,90.45
2023-02-13T18:34:52.919Z,69.43
2023-02-13T18:37:20.552Z,56.28
2023-02-13T18:39:48.041Z,59.25
2023-02-13T18:42:15.550Z,48.42
2023-02-13T18:44:42.945Z,46.15
2023-02-13T18:47:10.476Z,43.50
2023-02-13T18:49:37.904Z,41.55
2023-02-13T18:52:05.575Z,69.43
2023-02-13T18:54:33.128Z,62.97
2023-02-13T18:57:00.594Z,63.20
2023-02-13T18:59:28.163Z,61.70
2023-02-13T19:01:55.611Z,51.40
2023-02-13T19:04:23.100Z,48.17
2023-02-13T19:06:50.547Z,40.08
2023-02-13T19:09:18.640Z,34.63
2023-02-13T19:11:48.562Z,34.35
2023-02-13T19:14:16.129Z,32.35
2023-02-13T19:16:43.828Z,31.42
2023-02-13T19:19:11.386Z,30.00
2023-02-13T19:21:39.280Z,28.63
2023-02-13T19:24:08.735Z,28.63
2023-02-13T19:26:36.680Z,27.75
2023-02-13T19:29:04.262Z,28.30
2023-02-13T19:31:32.664Z,27.85
2023-02-13T19:34:00.852Z,26.75
2023-02-13T19:36:29.190Z,28.33
2023-02-13T19:38:57.626Z,27.83
2023-02-13T19:41:25.802Z,26.35
2023-02-13T19:43:53.765Z,27.05
2023-02-13T19:46:23.229Z,28.05
2023-02-13T19:48:51.107Z,36.55
2023-02-13T19:51:20.809Z,31.35
2023-02-13T19:53:48.294Z,41.35
2023-02-13T19:56:15.839Z,42.60
2023-02-13T19:58:43.780Z,40.90
2023-02-13T20:01:13.296Z,38.10
2023-02-13T20:03:41.184Z,43.85
2023-02-13T20:06:11.287Z,42.88
2023-02-13T20:08:40.847Z,43.97
2023-02-13T20:11:10.670Z,46.30
2023-02-13T20:13:38.441Z,49.90
2023-02-13T20:16:06.818Z,56.45
2023-02-13T20:18:37.417Z,57.13
2023-02-13T20:21:08.594Z,83.28
2023-02-13T20:23:36.206Z,61.45
2023-02-13T20:26:07.369Z,54.00
2023-02-13T20:28:34.838Z,50.90
2023-02-13T20:31:04.106Z,48.00
2023-02-13T20:33:31.852Z,51.00
2023-02-13T20:35:59.517Z,48.25
2023-02-13T20:38:26.982Z,49.95
2023-02-13T20:40:54.400Z,45.25
2023-02-13T20:43:21.843Z,43.78
2023-02-13T20:45:49.683Z,39.95
2023-02-13T20:48:17.099Z,38.53
2023-02-13T20:50:44.608Z,37.42
2023-02-13T20:53:13.044Z,34.60
2023-02-13T20:55:40.601Z,32.83
2023-02-13T20:58:08.024Z,32.33
2023-02-13T21:00:35.566Z,33.50
2023-02-13T21:03:03.114Z,35.95
2023-02-13T21:05:30.669Z,37.00
2023-02-13T21:07:58.206Z,35.63
2023-02-13T21:10:26.133Z,37.67
2023-02-13T21:12:53.557Z,36.88
2023-02-13T21:15:21.050Z,37.42
2023-02-13T21:17:48.511Z,37.88
2023-02-13T21:20:16.063Z,39.05
2023-02-13T21:22:43.492Z,39.28
2023-02-13T21:25:10.979Z,38.95
2023-02-13T21:27:38.708Z,41.40
2023-02-13T21:30:07.762Z,43.10
2023-02-13T21:32:35.354Z,43.28
2023-02-13T21:35:02.860Z,42.78
2023-02-13T21:37:30.374Z,41.20
2023-02-13T21:39:57.787Z,42.75
2023-02-13T21:42:25.268Z,44.42
2023-02-13T21:44:52.683Z,43.40
2023-02-13T21:47:20.200Z,45.28
2023-02-13T21:49:49.254Z,43.08
2023-02-13T21:52:16.891Z,43.85
2023-02-13T21:54:44.358Z,42.28
2023-02-13T21:57:11.836Z,39.92
2023-02-13T21:59:39.267Z,40.15
2023-02-13T22:02:06.798Z,40.65
2023-02-13T22:04:34.305Z,35.17
2023-02-13T22:07:01.822Z,37.85
2023-02-13T22:09:29.660Z,33.72
2023-02-13T22:11:57.268Z,32.17
2023-02-13T22:14:24.660Z,30.77
2023-02-13T22:16:52.817Z,27.38
2023-02-13T22:19:20.601Z,28.02
2023-02-13T22:21:48.054Z,23.48
2023-02-13T22:24:15.620Z,24.13
2023-02-13T22:26:45.326Z,23.45
2023-02-13T22:29:14.263Z,22.42
2023-02-13T22:31:42.137Z,21.98
2023-02-13T22:34:13.370Z,21.33
2023-02-13T22:36:41.106Z,20.02
2023-02-13T22:39:09.520Z,21.10
2023-02-13T22:41:37.146Z,21.35
2023-02-13T22:44:04.620Z,20.35
2023-02-13T22:46:32.840Z,21.85
2023-02-13T22:49:00.685Z,22.35
2023-02-13T22:51:37.401Z,20.80
2023-02-13T22:54:05.430Z,22.17
2023-02-13T22:56:33.474Z,22.95
2023-02-13T22:59:01.143Z,22.75
2023-02-13T23:01:29.415Z,23.00
2023-02-13T23:03:57.104Z,23.38
2023-02-13T23:06:24.906Z,22.42
2023-02-13T23:08:53.577Z,23.17
2023-02-13T23:11:41.547Z,23.00
2023-02-13T23:14:10.084Z,23.60
2023-02-13T23:16:57.293Z,21.40
2023-02-13T23:19:25.558Z,21.70
2023-02-13T23:21:52.980Z,21.20
2023-02-13T23:24:20.529Z,21.73
2023-02-13T23:26:47.904Z,22.17
2023-02-13T23:29:15.426Z,22.35
2023-02-13T23:31:42.996Z,21.45
2023-02-13T23:34:10.611Z,21.38
2023-02-13T23:36:38.138Z,20.92
2023-02-13T23:39:05.614Z,21.63
2023-02-13T23:41:33.087Z,21.05
2023-02-13T23:44:00.713Z,20.77
2023-02-13T23:46:28.195Z,21.30
2023-02-13T23:48:55.735Z,21.35
2023-02-13T23:51:25.535Z,21.27
2023-02-13T23:53:56.157Z,20.67
2023-02-13T23:56:24.434Z,20.92
2023-02-13T23:58:51.856Z,20.67
